Time;durP1;ratioP1;P1;durP2;ratioP2;P2;SDS_P1;SDS_P2;PMS_P1;PMS_P2;Temp;Humidity;BMP_temperature;BMP_pressure;BME280_temperature;BME280_humidity;BME280_pressure;Samples;Min_cycle;Max_cycle;Signal;HPM_P1;HPM_P2
2023/09/08 00:00:11;;;;;;;22.42;18.08;;;;;;;;;;5016688;28;20034;-70
2023/09/08 00:02:37;;;;;;;23.20;16.45;;;;;;;;;;5011331;28;20124;-70
2023/09/08 00:05:03;;;;;;;19.73;16.45;;;;;;;;;;5024681;28;20041;-70
2023/09/08 00:07:29;;;;;;;22.48;18.42;;;;;;;;;;5000397;28;20466;-70
2023/09/08 00:09:56;;;;;;;24.05;18.52;;;;;;;;;;5021361;28;20584;-70
2023/09/08 00:12:22;;;;;;;22.92;16.85;;;;;;;;;;5006447;28;20029;-70
2023/09/08 00:14:48;;;;;;;27.27;19.02;;;;;;;;;;5014793;28;20044;-70
2023/09/08 00:17:14;;;;;;;23.25;18.30;;;;;;;;;;4989121;28;20042;-75
2023/09/08 00:19:41;;;;;;;26.13;18.15;;;;;;;;;;5009259;28;20053;-72
2023/09/08 00:22:07;;;;;;;24.20;18.58;;;;;;;;;;4989998;28;20057;-70
2023/09/08 00:24:33;;;;;;;19.60;16.38;;;;;;;;;;5018542;28;20053;-70
2023/09/08 00:26:59;;;;;;;23.65;18.42;;;;;;;;;;5016886;28;20025;-70
2023/09/08 00:29:25;;;;;;;24.60;19.00;;;;;;;;;;5022709;28;20351;-70
2023/09/08 00:31:52;;;;;;;27.17;19.80;;;;;;;;;;5011421;28;20038;-69
2023/09/08 00:34:18;;;;;;;23.90;19.60;;;;;;;;;;5006866;28;20037;-70
2023/09/08 00:36:44;;;;;;;24.83;20.48;;;;;;;;;;5004086;28;20521;-69
2023/09/08 00:39:11;;;;;;;26.30;20.27;;;;;;;;;;5000489;28;20099;-70
2023/09/08 00:41:37;;;;;;;25.73;20.15;;;;;;;;;;4995013;28;20040;-69
2023/09/08 00:44:04;;;;;;;23.75;20.52;;;;;;;;;;4990092;28;20057;-70
2023/09/08 00:46:31;;;;;;;23.98;21.35;;;;;;;;;;4992934;28;20033;-69
2023/09/08 00:48:57;;;;;;;28.27;21.90;;;;;;;;;;5020857;28;20787;-70
2023/09/08 00:51:24;;;;;;;26.95;21.70;;;;;;;;;;4981219;28;20109;-70
2023/09/08 00:53:50;;;;;;;25.55;22.20;;;;;;;;;;4992125;28;20034;-71
2023/09/08 00:56:17;;;;;;;28.27;22.27;;;;;;;;;;5016585;28;20116;-71
2023/09/08 00:58:43;;;;;;;25.25;22.27;;;;;;;;;;4999971;28;20572;-70
2023/09/08 01:01:09;;;;;;;27.15;21.60;;;;;;;;;;5008712;28;20104;-70
2023/09/08 01:03:35;;;;;;;27.52;20.60;;;;;;;;;;5009454;28;20121;-71
2023/09/08 01:06:02;;;;;;;26.30;20.63;;;;;;;;;;5011692;28;20080;-70
2023/09/08 01:08:28;;;;;;;24.23;20.70;;;;;;;;;;5017334;28;20187;-70
2023/09/08 01:10:54;;;;;;;25.92;20.35;;;;;;;;;;4995022;28;20038;-69
2023/09/08 01:13:21;;;;;;;25.55;20.05;;;;;;;;;;4987539;28;20040;-70
2023/09/08 01:15:48;;;;;;;26.08;20.27;;;;;;;;;;4995599;28;20029;-71
2023/09/08 01:18:15;;;;;;;26.40;21.48;;;;;;;;;;4994209;28;20029;-70
2023/09/08 01:20:56;;;;;;;28.63;21.08;;;;;;;;;;4995032;28;20022;-70
2023/09/08 01:23:25;;;;;;;25.88;22.20;;;;;;;;;;5017261;28;20068;-70
2023/09/08 01:26:00;;;;;;;28.65;22.83;;;;;;;;;;5016462;28;20080;-70
2023/09/08 01:28:27;;;;;;;28.10;23.48;;;;;;;;;;5000441;28;20041;-69
2023/09/08 01:30:53;;;;;;;28.92;23.48;;;;;;;;;;5014527;28;20038;-69
2023/09/08 01:33:19;;;;;;;28.55;23.05;;;;;;;;;;5001567;28;20041;-69
2023/09/08 01:35:46;;;;;;;26.90;22.23;;;;;;;;;;4995495;28;20037;-70
2023/09/08 01:38:12;;;;;;;28.65;22.77;;;;;;;;;;5004575;28;20104;-71
2023/09/08 01:40:38;;;;;;;33.45;23.63;;;;;;;;;;5002374;28;20483;-69
2023/09/08 01:43:05;;;;;;;28.25;22.20;;;;;;;;;;4981827;28;20042;-70
2023/09/08 01:45:31;;;;;;;28.92;22.73;;;;;;;;;;4981298;28;20049;-70
2023/09/08 01:47:57;;;;;;;27.27;23.15;;;;;;;;;;4993425;28;20084;-70
2023/09/08 01:50:24;;;;;;;30.20;23.60;;;;;;;;;;5004801;28;20109;-70
2023/09/08 01:52:51;;;;;;;32.47;24.15;;;;;;;;;;5013110;28;20074;-70
2023/09/08 01:55:17;;;;;;;31.65;23.92;;;;;;;;;;4989831;28;20044;-70
2023/09/08 01:57:43;;;;;;;26.63;22.42;;;;;;;;;;5009815;28;20029;-71
2023/09/08 02:00:11;;;;;;;29.08;21.92;;;;;;;;;;4992734;28;20062;-71
2023/09/08 02:02:41;;;;;;;37.80;23.08;;;;;;;;;;5003915;28;20542;-70
2023/09/08 02:05:08;;;;;;;31.23;23.13;;;;;;;;;;5008803;28;20506;-71
2023/09/08 02:07:34;;;;;;;31.05;22.92;;;;;;;;;;5000492;28;20033;-70
2023/09/08 02:10:00;;;;;;;31.52;23.55;;;;;;;;;;4980071;28;20121;-71
2023/09/08 02:12:26;;;;;;;31.90;24.15;;;;;;;;;;5004282;28;20524;-69
2023/09/08 02:14:52;;;;;;;31.65;23.60;;;;;;;;;;5007759;28;20133;-70
2023/09/08 02:17:19;;;;;;;33.53;24.17;;;;;;;;;;4991956;28;20026;-70
2023/09/08 02:19:45;;;;;;;29.85;24.58;;;;;;;;;;5002740;28;20124;-70
2023/09/08 02:22:11;;;;;;;32.35;24.90;;;;;;;;;;5004109;28;20036;-70
2023/09/08 02:24:37;;;;;;;32.90;24.80;;;;;;;;;;5018984;28;20022;-70
2023/09/08 02:27:04;;;;;;;31.30;25.17;;;;;;;;;;4985116;28;20035;-70
2023/09/08 02:29:31;;;;;;;30.02;24.73;;;;;;;;;;5010096;28;20053;-70
2023/09/08 02:31:58;;;;;;;33.50;23.95;;;;;;;;;;4979418;28;20034;-70
2023/09/08 02:34:24;;;;;;;28.25;23.10;;;;;;;;;;4987742;28;20079;-70
2023/09/08 02:36:50;;;;;;;31.58;23.65;;;;;;;;;;5021823;28;20037;-71
2023/09/08 02:39:19;;;;;;;28.23;22.80;;;;;;;;;;5002078;28;20022;-71
2023/09/08 02:41:46;;;;;;;27.88;22.55;;;;;;;;;;4999636;28;20478;-70
2023/09/08 02:44:12;;;;;;;30.83;23.67;;;;;;;;;;4984246;28;20047;-70
2023/09/08 02:46:38;;;;;;;28.17;23.23;;;;;;;;;;4993918;28;20124;-70
2023/09/08 02:49:06;;;;;;;36.33;25.92;;;;;;;;;;5024933;28;20030;-70
2023/09/08 02:51:32;;;;;;;32.53;25.05;;;;;;;;;;5009491;28;20084;-70
2023/09/08 02:53:58;;;;;;;34.53;25.20;;;;;;;;;;4985407;28;20538;-70
2023/09/08 02:56:24;;;;;;;31.52;26.33;;;;;;;;;;4987948;28;20045;-69
2023/09/08 02:58:52;;;;;;;37.47;27.25;;;;;;;;;;4996428;28;20053;-69
2023/09/08 03:01:21;;;;;;;34.63;26.48;;;;;;;;;;4997141;28;20152;-70
2023/09/08 03:03:49;;;;;;;35.42;26.55;;;;;;;;;;5001260;28;20053;-69
2023/09/08 03:06:20;;;;;;;32.58;25.90;;;;;;;;;;4994962;28;20467;-70
2023/09/08 03:08:46;;;;;;;34.38;27.73;;;;;;;;;;5015679;28;20112;-70
2023/09/08 03:11:13;;;;;;;36.00;28.25;;;;;;;;;;4991458;28;20143;-70
2023/09/08 03:13:39;;;;;;;34.28;27.90;;;;;;;;;;4987741;28;20056;-71
2023/09/08 03:16:06;;;;;;;35.80;28.08;;;;;;;;;;5020402;28;20039;-70
2023/09/08 03:18:36;;;;;;;35.33;27.50;;;;;;;;;;5022521;28;20005;-70
2023/09/08 03:21:09;;;;;;;35.78;27.80;;;;;;;;;;4993924;28;20321;-70
2023/09/08 03:23:36;;;;;;;42.25;29.90;;;;;;;;;;5021352;28;20022;-71
2023/09/08 03:26:02;;;;;;;36.13;28.67;;;;;;;;;;4997470;28;20183;-71
2023/09/08 03:28:29;;;;;;;38.83;28.95;;;;;;;;;;4993641;28;20060;-75
2023/09/08 03:30:55;;;;;;;37.95;28.92;;;;;;;;;;5009667;28;20495;-70
2023/09/08 03:33:21;;;;;;;39.50;29.48;;;;;;;;;;5008070;28;20042;-70
2023/09/08 03:35:47;;;;;;;45.80;29.60;;;;;;;;;;4991618;28;20083;-71
2023/09/08 03:38:13;;;;;;;36.33;29.67;;;;;;;;;;4980198;28;20393;-70
2023/09/08 03:40:40;;;;;;;41.40;30.58;;;;;;;;;;5005354;28;20021;-70
2023/09/08 03:43:06;;;;;;;39.65;29.88;;;;;;;;;;4978095;28;20061;-71
2023/09/08 03:45:32;;;;;;;37.88;29.75;;;;;;;;;;5018482;28;20022;-71
2023/09/08 03:47:58;;;;;;;44.00;29.33;;;;;;;;;;4991761;28;20061;-70
2023/09/08 03:50:24;;;;;;;39.30;28.73;;;;;;;;;;5002052;28;20146;-70
2023/09/08 03:52:51;;;;;;;39.38;28.77;;;;;;;;;;4985198;28;20053;-74
2023/09/08 03:55:17;;;;;;;41.85;28.55;;;;;;;;;;4993251;28;20128;-71
2023/09/08 03:57:43;;;;;;;42.15;29.73;;;;;;;;;;5023701;28;20052;-70
2023/09/08 04:00:16;;;;;;;39.92;30.00;;;;;;;;;;5002066;28;20072;-70
2023/09/08 04:02:43;;;;;;;47.58;32.20;;;;;;;;;;4986450;28;20079;-70
2023/09/08 04:05:10;;;;;;;42.05;32.75;;;;;;;;;;5002605;28;20033;-70
2023/09/08 04:07:37;;;;;;;45.35;33.55;;;;;;;;;;5003682;28;20030;-71
2023/09/08 04:10:03;;;;;;;51.03;34.38;;;;;;;;;;5001608;28;20040;-71
2023/09/08 04:12:29;;;;;;;43.35;31.85;;;;;;;;;;5011562;28;20030;-70
2023/09/08 04:14:56;;;;;;;42.78;33.00;;;;;;;;;;5002491;28;20086;-70
2023/09/08 04:17:22;;;;;;;49.60;33.65;;;;;;;;;;4988783;28;20090;-72
2023/09/08 04:19:48;;;;;;;43.65;31.52;;;;;;;;;;5003512;28;20032;-70
2023/09/08 04:22:14;;;;;;;47.78;33.60;;;;;;;;;;5002329;28;20524;-70
2023/09/08 04:24:40;;;;;;;44.03;32.03;;;;;;;;;;4997864;28;20037;-71
2023/09/08 04:27:08;;;;;;;41.70;31.73;;;;;;;;;;5000518;28;20506;-70
2023/09/08 04:29:35;;;;;;;41.33;31.30;;;;;;;;;;5002262;28;20022;-70
2023/09/08 04:32:08;;;;;;;42.25;31.23;;;;;;;;;;4984394;28;20058;-70
2023/09/08 04:34:36;;;;;;;39.15;30.05;;;;;;;;;;5000757;28;20113;-70
2023/09/08 04:37:02;;;;;;;43.35;29.30;;;;;;;;;;4986760;28;20125;-70
2023/09/08 04:39:28;;;;;;;41.30;31.77;;;;;;;;;;4993046;28;20577;-71
2023/09/08 04:41:55;;;;;;;43.85;31.40;;;;;;;;;;4970277;28;20063;-70
2023/09/08 04:44:22;;;;;;;43.65;33.53;;;;;;;;;;4984376;28;20029;-71
2023/09/08 04:46:48;;;;;;;55.80;33.00;;;;;;;;;;5000635;28;20033;-71
2023/09/08 04:49:15;;;;;;;40.40;31.02;;;;;;;;;;4977893;28;20076;-69
2023/09/08 04:51:41;;;;;;;44.30;31.30;;;;;;;;;;4988388;28;20062;-70
2023/09/08 04:54:07;;;;;;;43.75;30.80;;;;;;;;;;4989275;28;20027;-70
2023/09/08 04:56:33;;;;;;;43.78;31.55;;;;;;;;;;5001994;28;20017;-70
2023/09/08 04:59:00;;;;;;;42.97;33.47;;;;;;;;;;4992270;28;20108;-70
2023/09/08 05:01:29;;;;;;;42.13;32.75;;;;;;;;;;4985581;28;20030;-71
2023/09/08 05:03:56;;;;;;;43.08;31.55;;;;;;;;;;4994211;28;20049;-71
2023/09/08 05:06:22;;;;;;;44.97;32.38;;;;;;;;;;4974093;28;20041;-71
2023/09/08 05:08:49;;;;;;;41.22;30.85;;;;;;;;;;5003949;28;20088;-71
2023/09/08 05:11:16;;;;;;;48.40;34.28;;;;;;;;;;4999059;28;20130;-71
2023/09/08 05:13:42;;;;;;;44.63;31.95;;;;;;;;;;4988317;28;20084;-71
2023/09/08 05:16:12;;;;;;;46.38;32.53;;;;;;;;;;4992402;28;20069;-71
2023/09/08 05:18:40;;;;;;;48.90;34.30;;;;;;;;;;4983155;28;20022;-70
2023/09/08 05:21:07;;;;;;;49.22;33.28;;;;;;;;;;4993081;28;20090;-69
2023/09/08 05:23:33;;;;;;;46.92;34.13;;;;;;;;;;4995518;28;20082;-71
2023/09/08 05:26:02;;;;;;;44.33;32.00;;;;;;;;;;4990007;28;20049;-71
2023/09/08 05:28:28;;;;;;;50.95;34.58;;;;;;;;;;4985823;28;20095;-71
2023/09/08 05:30:54;;;;;;;51.00;35.58;;;;;;;;;;4998307;28;20460;-71
2023/09/08 05:33:21;;;;;;;46.42;35.05;;;;;;;;;;4986664;28;20037;-71
2023/09/08 05:35:47;;;;;;;49.17;32.25;;;;;;;;;;4999538;28;20107;-70
2023/09/08 05:38:14;;;;;;;35.92;29.42;;;;;;;;;;5007972;28;20109;-70
2023/09/08 05:40:41;;;;;;;40.72;29.23;;;;;;;;;;5006338;28;20057;-71
2023/09/08 05:43:07;;;;;;;35.50;26.52;;;;;;;;;;5018819;28;20116;-71
2023/09/08 05:45:34;;;;;;;32.88;25.13;;;;;;;;;;4984232;28;20033;-71
2023/09/08 05:48:00;;;;;;;30.10;24.65;;;;;;;;;;5003252;28;20029;-71
2023/09/08 05:50:27;;;;;;;30.83;25.65;;;;;;;;;;5000450;28;20117;-69
2023/09/08 05:52:54;;;;;;;29.45;24.85;;;;;;;;;;4984940;28;20030;-71
2023/09/08 05:55:20;;;;;;;33.45;25.52;;;;;;;;;;4993257;28;20054;-71
2023/09/08 05:57:47;;;;;;;36.15;26.73;;;;;;;;;;4983778;28;20109;-70
2023/09/08 06:00:14;;;;;;;34.70;25.73;;;;;;;;;;4977292;28;20133;-69
2023/09/08 06:02:42;;;;;;;38.50;25.98;;;;;;;;;;4994304;28;20029;-69
2023/09/08 06:05:11;;;;;;;34.75;26.75;;;;;;;;;;4992279;28;20033;-70
2023/09/08 06:07:38;;;;;;;37.63;26.13;;;;;;;;;;4973829;28;20102;-69
2023/09/08 06:10:05;;;;;;;32.38;23.75;;;;;;;;;;4980173;28;20032;-70
2023/09/08 06:12:31;;;;;;;33.83;23.63;;;;;;;;;;4998932;28;20030;-70
2023/09/08 06:14:58;;;;;;;28.52;21.73;;;;;;;;;;4994053;28;20026;-69
2023/09/08 06:17:24;;;;;;;31.13;21.45;;;;;;;;;;4990562;28;20038;-70
2023/09/08 06:19:52;;;;;;;27.60;19.98;;;;;;;;;;4993198;28;20029;-70
2023/09/08 06:22:18;;;;;;;24.98;20.48;;;;;;;;;;5010753;28;20034;-71
2023/09/08 06:24:44;;;;;;;27.20;21.33;;;;;;;;;;4982749;28;20034;-69
2023/09/08 06:27:12;;;;;;;25.48;20.20;;;;;;;;;;4993418;28;20026;-70
2023/09/08 06:29:40;;;;;;;25.83;19.77;;;;;;;;;;5007155;28;20065;-71
2023/09/08 06:32:07;;;;;;;27.50;20.92;;;;;;;;;;4998027;28;20057;-70
2023/09/08 06:34:35;;;;;;;25.65;21.95;;;;;;;;;;4992085;28;20079;-69
2023/09/08 06:37:02;;;;;;;31.23;23.42;;;;;;;;;;4977108;28;20041;-70
2023/09/08 06:39:29;;;;;;;28.63;22.65;;;;;;;;;;4978517;28;20033;-69
2023/09/08 06:41:56;;;;;;;34.78;23.02;;;;;;;;;;4994408;28;20030;-71
2023/09/08 06:44:22;;;;;;;31.38;22.63;;;;;;;;;;5000881;28;20108;-70
2023/09/08 06:46:48;;;;;;;36.70;24.55;;;;;;;;;;5023568;28;20068;-70
2023/09/08 06:49:14;;;;;;;33.45;23.85;;;;;;;;;;5003695;28;20033;-70
2023/09/08 06:51:41;;;;;;;28.65;23.38;;;;;;;;;;4988927;28;20029;-70
2023/09/08 06:54:07;;;;;;;30.38;23.23;;;;;;;;;;5017515;28;20053;-70
2023/09/08 06:56:37;;;;;;;;;;;;;;;;;;4997578;28;20034;-70
2023/09/08 06:59:05;;;;;;;35.45;23.83;;;;;;;;;;5019833;28;19955;-69
2023/09/08 07:01:32;;;;;;;27.65;22.48;;;;;;;;;;4989387;28;20286;-70
2023/09/08 07:03:58;;;;;;;31.27;22.98;;;;;;;;;;4996189;28;20055;-70
2023/09/08 07:06:24;;;;;;;31.95;24.15;;;;;;;;;;5003454;28;20037;-70
2023/09/08 07:08:52;;;;;;;31.05;23.63;;;;;;;;;;5002627;28;20033;-70
2023/09/08 07:11:19;;;;;;;27.73;22.85;;;;;;;;;;4997370;28;20021;-70
2023/09/08 07:13:46;;;;;;;29.25;21.95;;;;;;;;;;4999795;28;20175;-70
2023/09/08 07:16:13;;;;;;;30.30;21.80;;;;;;;;;;4999128;28;20028;-69
2023/09/08 07:18:39;;;;;;;32.50;23.08;;;;;;;;;;4999847;28;20084;-68
2023/09/08 07:21:07;;;;;;;24.90;21.38;;;;;;;;;;5006549;28;20388;-69
2023/09/08 07:23:36;;;;;;;33.22;22.73;;;;;;;;;;5004924;28;20021;-69
2023/09/08 07:26:03;;;;;;;26.98;22.98;;;;;;;;;;4998299;28;20037;-70
2023/09/08 07:28:31;;;;;;;34.35;22.98;;;;;;;;;;5016343;28;20396;-70
2023/09/08 07:31:04;;;;;;;28.02;22.23;;;;;;;;;;4983789;28;20040;-68
2023/09/08 07:33:32;;;;;;;25.75;21.15;;;;;;;;;;4983034;28;20050;-70
2023/09/08 07:36:03;;;;;;;28.70;21.88;;;;;;;;;;4993142;28;20022;-70
2023/09/08 07:38:29;;;;;;;27.80;22.00;;;;;;;;;;4994151;28;20025;-70
2023/09/08 07:40:56;;;;;;;31.58;22.30;;;;;;;;;;4991639;28;20237;-70
2023/09/08 07:43:22;;;;;;;28.10;21.48;;;;;;;;;;4992891;28;20030;-69
2023/09/08 07:45:48;;;;;;;28.05;22.60;;;;;;;;;;4990476;28;20030;-70
2023/09/08 07:48:14;;;;;;;28.23;21.23;;;;;;;;;;4992487;28;20068;-69
2023/09/08 07:50:40;;;;;;;29.58;22.55;;;;;;;;;;4991776;28;20124;-70
2023/09/08 07:53:06;;;;;;;26.75;21.83;;;;;;;;;;4992618;28;20122;-69
2023/09/08 07:55:33;;;;;;;27.55;21.42;;;;;;;;;;5010564;28;20022;-71
2023/09/08 07:57:59;;;;;;;23.13;20.20;;;;;;;;;;4992724;28;20033;-71
2023/09/08 08:00:26;;;;;;;24.60;19.45;;;;;;;;;;5008930;28;21074;-70
2023/09/08 08:02:54;;;;;;;24.17;19.55;;;;;;;;;;5012079;28;20056;-71
2023/09/08 08:05:20;;;;;;;22.70;19.13;;;;;;;;;;5012208;28;20026;-70
2023/09/08 08:07:46;;;;;;;27.27;18.90;;;;;;;;;;5013355;28;20113;-70
2023/09/08 08:10:13;;;;;;;23.73;18.70;;;;;;;;;;5017752;28;20445;-70
2023/09/08 08:12:39;;;;;;;23.30;18.40;;;;;;;;;;5006317;28;20036;-71
2023/09/08 08:15:06;;;;;;;25.58;18.88;;;;;;;;;;5010123;28;20034;-70
2023/09/08 08:17:33;;;;;;;23.65;18.35;;;;;;;;;;4992298;28;20041;-72
2023/09/08 08:19:59;;;;;;;26.23;18.33;;;;;;;;;;5010137;28;20025;-70
2023/09/08 08:22:25;;;;;;;25.77;18.65;;;;;;;;;;5001300;28;20036;-70
2023/09/08 08:24:51;;;;;;;25.13;18.35;;;;;;;;;;5006345;28;20037;-70
2023/09/08 08:27:17;;;;;;;21.42;17.48;;;;;;;;;;5009966;28;20052;-70
2023/09/08 08:29:44;;;;;;;23.83;17.90;;;;;;;;;;5010249;28;20046;-70
2023/09/08 08:32:12;;;;;;;20.70;17.15;;;;;;;;;;5008341;28;20053;-69
2023/09/08 08:34:38;;;;;;;21.40;16.55;;;;;;;;;;5002494;28;20052;-71
2023/09/08 08:37:04;;;;;;;20.25;16.40;;;;;;;;;;5009469;28;20046;-72
2023/09/08 08:39:30;;;;;;;20.50;16.48;;;;;;;;;;4988321;28;20114;-70
2023/09/08 08:41:56;;;;;;;21.80;15.85;;;;;;;;;;5010208;28;20056;-71
2023/09/08 08:44:23;;;;;;;19.35;16.00;;;;;;;;;;4989475;28;20094;-70
2023/09/08 08:46:50;;;;;;;17.50;15.60;;;;;;;;;;5009601;28;20092;-70
2023/09/08 08:49:16;;;;;;;18.13;15.73;;;;;;;;;;5006662;28;20054;-71
2023/09/08 08:51:46;;;;;;;19.27;15.82;;;;;;;;;;4993667;28;20052;-71
2023/09/08 08:54:13;;;;;;;19.63;14.63;;;;;;;;;;4997386;28;20030;-68
2023/09/08 08:56:40;;;;;;;19.85;13.93;;;;;;;;;;5009569;28;20495;-69
2023/09/08 08:59:07;;;;;;;19.25;14.70;;;;;;;;;;4994086;28;20034;-70
2023/09/08 09:01:33;;;;;;;19.80;14.35;;;;;;;;;;4991660;28;20100;-70
2023/09/08 09:03:59;;;;;;;16.65;13.73;;;;;;;;;;5009166;28;20483;-70
2023/09/08 09:06:26;;;;;;;17.20;14.30;;;;;;;;;;4988692;28;20059;-70
2023/09/08 09:08:52;;;;;;;17.42;13.63;;;;;;;;;;5007359;28;20089;-69
2023/09/08 09:11:18;;;;;;;19.20;12.57;;;;;;;;;;5009448;28;20034;-70
2023/09/08 09:13:44;;;;;;;18.08;13.85;;;;;;;;;;5009209;28;20072;-71
2023/09/08 09:16:10;;;;;;;17.10;12.85;;;;;;;;;;4991738;28;20388;-71
2023/09/08 09:18:55;;;;;;;15.55;12.32;;;;;;;;;;5008483;28;20407;-71
2023/09/08 09:21:21;;;;;;;13.77;11.73;;;;;;;;;;5007959;28;20427;-70
2023/09/08 09:23:47;;;;;;;17.85;12.07;;;;;;;;;;4991546;28;20422;-70
2023/09/08 09:26:24;;;;;;;13.52;11.68;;;;;;;;;;5008618;28;20053;-70
2023/09/08 09:28:51;;;;;;;16.08;11.50;;;;;;;;;;5009158;28;20109;-70
2023/09/08 09:31:21;;;;;;;14.20;12.70;;;;;;;;;;5008391;28;20100;-71
2023/09/08 09:33:47;;;;;;;16.52;12.23;;;;;;;;;;5007946;28;20037;-71
2023/09/08 09:36:22;;;;;;;13.27;11.63;;;;;;;;;;5009131;28;20036;-71
2023/09/08 09:38:48;;;;;;;12.98;10.98;;;;;;;;;;5008359;28;20129;-69
2023/09/08 09:41:15;;;;;;;14.88;11.80;;;;;;;;;;5009010;28;20109;-71
2023/09/08 09:43:41;;;;;;;14.23;12.05;;;;;;;;;;5009355;28;20053;-70
2023/09/08 09:46:10;;;;;;;18.42;12.32;;;;;;;;;;5006348;28;20030;-70
2023/09/08 09:48:37;;;;;;;15.75;11.40;;;;;;;;;;5009380;28;20038;-71
2023/09/08 09:51:16;;;;;;;20.60;11.48;;;;;;;;;;4992223;28;20037;-69
2023/09/08 09:53:42;;;;;;;;;;;;;;;;;;5011292;28;20033;-70
2023/09/08 09:56:10;;;;;;;15.55;10.63;;;;;;;;;;5008421;28;19936;-70
2023/09/08 09:58:36;;;;;;;13.65;11.40;;;;;;;;;;5003097;28;20053;-70
2023/09/08 10:01:03;;;;;;;16.45;11.73;;;;;;;;;;5007525;28;20037;-71
2023/09/08 10:03:31;;;;;;;15.82;11.40;;;;;;;;;;5007144;28;20042;-71
2023/09/08 10:05:58;;;;;;;13.07;10.30;;;;;;;;;;5005803;28;20034;-70
2023/09/08 10:08:24;;;;;;;15.35;11.02;;;;;;;;;;4995174;28;20116;-70
2023/09/08 10:10:50;;;;;;;17.15;10.98;;;;;;;;;;5008541;28;20037;-69
2023/09/08 10:13:28;;;;;;;15.10;11.70;;;;;;;;;;5010926;28;20070;-70
2023/09/08 10:15:58;;;;;;;14.63;11.75;;;;;;;;;;5010916;28;20105;-70
2023/09/08 10:18:24;;;;;;;;;;;;;;;;;;5009725;28;20507;-70
2023/09/08 10:20:54;;;;;;;15.68;10.48;;;;;;;;;;5007451;28;20436;-70
2023/09/08 10:23:34;;;;;;;14.00;9.80;;;;;;;;;;5010854;28;20033;-71
2023/09/08 10:26:04;;;;;;;16.17;9.93;;;;;;;;;;5013647;28;20029;-72
2023/09/08 10:28:31;;;;;;;19.77;11.90;;;;;;;;;;5018087;28;20080;-72
2023/09/08 10:30:57;;;;;;;13.35;10.75;;;;;;;;;;5010045;28;20049;-70
2023/09/08 10:33:24;;;;;;;15.52;10.48;;;;;;;;;;5004824;28;20038;-70
2023/09/08 10:35:50;;;;;;;12.43;9.70;;;;;;;;;;5007498;28;20545;-70
2023/09/08 10:38:23;;;;;;;14.13;9.27;;;;;;;;;;4995524;28;20022;-70
2023/09/08 10:40:50;;;;;;;18.42;9.68;;;;;;;;;;5015966;28;20025;-70
2023/09/08 10:43:17;;;;;;;13.52;10.50;;;;;;;;;;5008332;28;20034;-69
2023/09/08 10:45:44;;;;;;;18.05;10.93;;;;;;;;;;5023245;28;20045;-71
2023/09/08 10:48:10;;;;;;;11.20;8.63;;;;;;;;;;5019350;28;20029;-71
2023/09/08 10:50:40;;;;;;;15.15;8.93;;;;;;;;;;5015468;28;20045;-71
2023/09/08 10:53:06;;;;;;;;;;;;;;;;;;5019055;28;20080;-70
2023/09/08 10:55:37;;;;;;;13.60;9.70;;;;;;;;;;5004936;28;20377;-70
2023/09/08 10:58:05;;;;;;;19.95;8.75;;;;;;;;;;5019862;28;20049;-70
2023/09/08 11:00:43;;;;;;;14.38;9.88;;;;;;;;;;4994358;28;20021;-70
2023/09/08 11:03:09;;;;;;;11.40;9.13;;;;;;;;;;5009273;28;20029;-70
2023/09/08 11:05:35;;;;;;;11.65;8.05;;;;;;;;;;5011514;28;20030;-70
2023/09/08 11:08:03;;;;;;;15.45;7.82;;;;;;;;;;4992494;28;20037;-70
2023/09/08 11:10:30;;;;;;;12.70;8.35;;;;;;;;;;4992835;28;20088;-71
2023/09/08 11:12:57;;;;;;;16.92;9.27;;;;;;;;;;5009087;28;20042;-70
2023/09/08 11:15:23;;;;;;;11.70;7.70;;;;;;;;;;5011146;28;20041;-70
2023/09/08 11:17:51;;;;;;;11.20;8.52;;;;;;;;;;5011369;28;20038;-71
2023/09/08 11:20:26;;;;;;;16.40;9.75;;;;;;;;;;5014618;28;20045;-70
2023/09/08 11:22:52;;;;;;;11.85;8.50;;;;;;;;;;5020198;28;20044;-69
2023/09/08 11:25:20;;;;;;;12.00;8.77;;;;;;;;;;5013408;28;20040;-71
2023/09/08 11:27:46;;;;;;;9.68;7.93;;;;;;;;;;5018791;28;20598;-71
2023/09/08 11:30:14;;;;;;;13.73;8.38;;;;;;;;;;5018733;28;20414;-69
2023/09/08 11:32:40;;;;;;;11.15;8.27;;;;;;;;;;5006776;28;20053;-71
2023/09/08 11:35:08;;;;;;;8.80;7.68;;;;;;;;;;4991300;28;20081;-70
2023/09/08 11:37:38;;;;;;;11.82;7.90;;;;;;;;;;5016840;28;20087;-70
2023/09/08 11:40:09;;;;;;;15.15;8.23;;;;;;;;;;5008590;28;20022;-70
2023/09/08 11:42:35;;;;;;;9.90;8.30;;;;;;;;;;5014194;28;20040;-70
2023/09/08 11:45:03;;;;;;;10.02;7.32;;;;;;;;;;5010864;28;20038;-70
2023/09/08 11:47:30;;;;;;;15.02;8.90;;;;;;;;;;5012985;28;20116;-70
2023/09/08 11:49:58;;;;;;;14.07;8.85;;;;;;;;;;5013188;28;20041;-70
2023/09/08 11:52:24;;;;;;;11.27;7.65;;;;;;;;;;5011999;28;20040;-70
2023/09/08 11:54:50;;;;;;;11.15;7.07;;;;;;;;;;5019362;28;20041;-70
2023/09/08 11:57:18;;;;;;;12.55;7.90;;;;;;;;;;5015581;28;20025;-70
2023/09/08 11:59:46;;;;;;;7.75;5.45;;;;;;;;;;5008406;28;20462;-70
2023/09/08 12:02:12;;;;;;;11.18;6.30;;;;;;;;;;5010327;28;20034;-71
2023/09/08 12:04:41;;;;;;;17.73;6.38;;;;;;;;;;5008745;28;20033;-71
2023/09/08 12:07:15;;;;;;;12.80;5.25;;;;;;;;;;5010240;28;20022;-71
2023/09/08 12:09:41;;;;;;;8.93;5.30;;;;;;;;;;4990687;28;20022;-71
2023/09/08 12:12:11;;;;;;;14.50;6.00;;;;;;;;;;5010419;28;20407;-71
2023/09/08 12:14:44;;;;;;;15.93;6.85;;;;;;;;;;5010970;28;20088;-71
2023/09/08 12:17:10;;;;;;;11.02;6.50;;;;;;;;;;5008740;28;20064;-70
2023/09/08 12:19:39;;;;;;;11.05;6.05;;;;;;;;;;5010690;28;20422;-70
2023/09/08 12:22:07;;;;;;;11.10;6.63;;;;;;;;;;5007587;28;20062;-71
2023/09/08 12:24:52;;;;;;;11.55;6.90;;;;;;;;;;5000562;28;20080;-70
2023/09/08 12:27:18;;;;;;;9.68;6.80;;;;;;;;;;4992459;28;20026;-70
2023/09/08 12:29:54;;;;;;;11.23;6.88;;;;;;;;;;5010854;28;20085;-71
2023/09/08 12:32:20;;;;;;;13.00;6.82;;;;;;;;;;4996726;28;20104;-71
2023/09/08 12:34:46;;;;;;;9.82;6.30;;;;;;;;;;5009854;28;20042;-69
2023/09/08 12:37:13;;;;;;;18.92;7.68;;;;;;;;;;5003015;28;20030;-71
2023/09/08 12:39:39;;;;;;;10.95;6.68;;;;;;;;;;4993004;28;20056;-70
2023/09/08 12:42:06;;;;;;;8.77;7.03;;;;;;;;;;5009733;28;20504;-71
2023/09/08 12:44:32;;;;;;;15.80;7.38;;;;;;;;;;5010864;28;20022;-70
2023/09/08 12:46:58;;;;;;;13.18;7.15;;;;;;;;;;5009913;28;20457;-70
2023/09/08 12:49:24;;;;;;;14.70;7.30;;;;;;;;;;5010513;28;20395;-70
2023/09/08 12:51:51;;;;;;;14.80;7.03;;;;;;;;;;4991609;28;20030;-70
2023/09/08 12:54:17;;;;;;;10.80;6.60;;;;;;;;;;4976382;28;20041;-71
2023/09/08 12:56:43;;;;;;;10.38;5.18;;;;;;;;;;4978370;28;20030;-71
2023/09/08 12:59:09;;;;;;;10.07;4.55;;;;;;;;;;4989819;28;20034;-71
2023/09/08 13:01:35;;;;;;;6.35;4.93;;;;;;;;;;4973154;28;20110;-71
2023/09/08 13:04:01;;;;;;;15.73;6.45;;;;;;;;;;4996578;28;20037;-71
2023/09/08 13:06:27;;;;;;;9.27;5.65;;;;;;;;;;5010836;28;20056;-71
2023/09/08 13:08:54;;;;;;;8.77;5.68;;;;;;;;;;5007501;28;20042;-71
2023/09/08 13:11:20;;;;;;;7.93;5.47;;;;;;;;;;5002549;28;20033;-71
2023/09/08 13:13:46;;;;;;;12.32;6.25;;;;;;;;;;5009387;28;20038;-71
2023/09/08 13:16:12;;;;;;;11.77;6.53;;;;;;;;;;4990848;28;20065;-70
2023/09/08 13:18:41;;;;;;;14.40;6.00;;;;;;;;;;5009233;28;20026;-71
2023/09/08 13:21:07;;;;;;;10.02;5.15;;;;;;;;;;4995386;28;20065;-70
2023/09/08 13:23:33;;;;;;;15.73;6.10;;;;;;;;;;5007579;28;20108;-70
2023/09/08 13:25:59;;;;;;;8.50;5.07;;;;;;;;;;5009602;28;20473;-70
2023/09/08 13:28:25;;;;;;;10.88;4.90;;;;;;;;;;5008392;28;20069;-70
2023/09/08 13:30:52;;;;;;;6.85;5.53;;;;;;;;;;5009150;28;20413;-70
2023/09/08 13:33:18;;;;;;;8.38;5.82;;;;;;;;;;4991107;28;20133;-71
2023/09/08 13:35:44;;;;;;;9.80;5.85;;;;;;;;;;5009191;28;20070;-70
2023/09/08 13:38:11;;;;;;;6.22;5.40;;;;;;;;;;4999656;28;20113;-70
2023/09/08 13:40:37;;;;;;;7.75;5.50;;;;;;;;;;4999569;28;20100;-69
2023/09/08 13:43:03;;;;;;;7.88;5.18;;;;;;;;;;5018043;28;20466;-69
2023/09/08 13:45:29;;;;;;;12.65;5.32;;;;;;;;;;4996437;28;20038;-70
2023/09/08 13:47:55;;;;;;;10.65;5.43;;;;;;;;;;5009694;28;20053;-70
2023/09/08 13:50:23;;;;;;;7.32;5.32;;;;;;;;;;5013114;28;20038;-70
2023/09/08 13:52:49;;;;;;;9.25;5.85;;;;;;;;;;5011112;28;20096;-70
2023/09/08 13:55:16;;;;;;;8.32;4.90;;;;;;;;;;5013382;28;20022;-73
2023/09/08 13:57:42;;;;;;;10.02;5.50;;;;;;;;;;5013452;28;20311;-71
2023/09/08 14:00:08;;;;;;;10.13;5.25;;;;;;;;;;5011852;28;20529;-70
2023/09/08 14:02:37;;;;;;;6.80;5.10;;;;;;;;;;5013231;28;20080;-71
2023/09/08 14:05:03;;;;;;;9.23;5.47;;;;;;;;;;5013337;28;20069;-70
2023/09/08 14:07:29;;;;;;;12.90;5.80;;;;;;;;;;5010336;28;20042;-71
2023/09/08 14:09:56;;;;;;;10.02;5.28;;;;;;;;;;5013027;28;20294;-70
2023/09/08 14:12:24;;;;;;;18.33;5.05;;;;;;;;;;5012323;28;20384;-70
2023/09/08 14:14:50;;;;;;;9.48;4.95;;;;;;;;;;5013148;28;20045;-70
2023/09/08 14:17:16;;;;;;;16.42;5.72;;;;;;;;;;5012397;28;20084;-70
2023/09/08 14:19:43;;;;;;;10.88;5.18;;;;;;;;;;5012389;28;20050;-70
2023/09/08 14:22:09;;;;;;;9.20;5.85;;;;;;;;;;5011158;28;20042;-70